createdAt,value
2018-03-08T00:00:30.648Z,76.37
2018-03-08T00:02:56.390Z,77.18
2018-03-08T00:05:22.118Z,71.03
2018-03-08T00:07:47.853Z,77.30
2018-03-08T00:10:13.582Z,76.17
2018-03-08T00:12:39.318Z,71.07
2018-03-08T00:15:05.038Z,74.67
2018-03-08T00:17:30.764Z,77.13
2018-03-08T00:19:56.490Z,72.80
2018-03-08T00:22:22.230Z,75.60
2018-03-08T00:24:47.949Z,68.57
2018-03-08T00:27:13.676Z,69.67
2018-03-08T00:29:39.401Z,68.47
2018-03-08T00:32:05.152Z,70.17
2018-03-08T00:34:30.883Z,82.30
2018-03-08T00:37:03.547Z,75.13
2018-03-08T00:39:29.267Z,78.05
2018-03-08T00:41:54.994Z,75.87
2018-03-08T00:44:20.727Z,68.60
2018-03-08T00:46:46.471Z,66.53
2018-03-08T00:49:12.209Z,65.30
2018-03-08T00:51:37.930Z,75.03
2018-03-08T00:54:03.665Z,66.77
2018-03-08T00:56:29.403Z,77.17
2018-03-08T00:58:55.133Z,70.17
2018-03-08T01:01:20.865Z,80.20
2018-03-08T01:03:46.598Z,82.70
2018-03-08T01:06:12.316Z,83.43
2018-03-08T01:08:38.078Z,72.73
2018-03-08T01:11:03.813Z,79.43
2018-03-08T01:13:29.550Z,83.00
2018-03-08T01:15:55.277Z,64.60
2018-03-08T01:18:21.002Z,63.83
2018-03-08T01:20:46.725Z,63.80
2018-03-08T01:23:12.466Z,64.87
2018-03-08T01:25:38.186Z,62.07
2018-03-08T01:28:03.934Z,73.57
2018-03-08T01:30:29.667Z,63.17
2018-03-08T01:32:55.397Z,65.23
2018-03-08T01:35:21.125Z,62.90
2018-03-08T01:37:46.850Z,68.97
2018-03-08T01:40:12.574Z,71.00
2018-03-08T01:42:38.297Z,69.00
2018-03-08T01:45:04.034Z,70.27
2018-03-08T01:47:29.766Z,76.07
2018-03-08T01:49:55.498Z,63.13
2018-03-08T01:52:21.224Z,71.43
2018-03-08T01:54:46.957Z,67.53
2018-03-08T01:57:12.681Z,71.03
2018-03-08T01:59:38.405Z,64.00
2018-03-08T02:02:04.122Z,69.13
2018-03-08T02:04:29.862Z,70.60
2018-03-08T02:06:55.593Z,71.00
2018-03-08T02:09:21.328Z,74.23
2018-03-08T02:11:47.052Z,71.10
2018-03-08T02:14:12.810Z,72.53
2018-03-08T02:16:38.533Z,74.40
2018-03-08T02:19:04.260Z,76.07
2018-03-08T02:21:29.985Z,70.63
2018-03-08T02:23:55.726Z,67.33
2018-03-08T02:26:21.442Z,76.37
2018-03-08T02:28:47.165Z,74.93
2018-03-08T02:31:12.890Z,67.53
2018-03-08T02:33:38.607Z,72.47
2018-03-08T02:36:04.358Z,78.40
2018-03-08T02:38:30.086Z,70.67
2018-03-08T02:40:55.817Z,69.37
2018-03-08T02:43:21.545Z,61.93
2018-03-08T02:45:47.283Z,62.13
2018-03-08T02:48:12.998Z,68.93
2018-03-08T02:50:38.728Z,66.17
2018-03-08T02:53:04.458Z,69.63
2018-03-08T02:55:30.195Z,69.30
2018-03-08T02:57:55.917Z,62.57
2018-03-08T03:00:21.648Z,60.37
2018-03-08T03:02:47.380Z,61.77
2018-03-08T03:05:13.114Z,61.17
2018-03-08T03:07:38.833Z,64.17
2018-03-08T03:10:04.566Z,65.20
2018-03-08T03:12:30.294Z,69.43
2018-03-08T03:14:56.021Z,63.70
2018-03-08T03:17:21.740Z,64.13
2018-03-08T03:19:47.461Z,63.20
2018-03-08T03:22:13.191Z,67.93
2018-03-08T03:24:38.897Z,65.23
2018-03-08T03:27:04.834Z,61.07
2018-03-08T03:29:30.575Z,63.53
2018-03-08T03:31:56.298Z,62.63
2018-03-08T03:34:22.013Z,64.63
2018-03-08T03:36:47.744Z,65.00
2018-03-08T03:39:13.470Z,65.97
2018-03-08T03:41:39.209Z,61.87
2018-03-08T03:44:04.946Z,64.30
2018-03-08T03:46:30.670Z,63.70
2018-03-08T03:48:56.389Z,65.13
2018-03-08T03:51:22.109Z,65.10
2018-03-08T03:53:47.832Z,64.27
2018-03-08T03:56:13.559Z,64.03
2018-03-08T03:58:39.265Z,66.27
2018-03-08T04:01:06.778Z,63.97
2018-03-08T04:03:32.500Z,66.95
2018-03-08T04:05:58.226Z,67.17
2018-03-08T04:08:23.945Z,69.30
2018-03-08T04:10:49.679Z,67.37
2018-03-08T04:13:15.408Z,66.47
2018-03-08T04:15:41.126Z,71.47
2018-03-08T04:18:06.869Z,69.67
2018-03-08T04:20:32.580Z,67.33
2018-03-08T04:22:58.301Z,62.27
2018-03-08T04:25:24.027Z,60.33
2018-03-08T04:27:49.761Z,64.27
2018-03-08T04:30:15.485Z,67.30
2018-03-08T04:32:41.218Z,70.83
2018-03-08T04:35:06.941Z,71.60
2018-03-08T04:37:32.670Z,70.50
2018-03-08T04:39:58.395Z,68.53
2018-03-08T04:42:24.118Z,69.33
2018-03-08T04:44:49.853Z,77.20
2018-03-08T04:47:15.581Z,73.80
2018-03-08T04:49:41.313Z,76.30
2018-03-08T04:52:07.047Z,75.73
2018-03-08T04:54:32.764Z,76.43
2018-03-08T04:56:58.485Z,78.77
2018-03-08T04:59:24.203Z,77.57
2018-03-08T05:01:49.942Z,80.83
2018-03-08T05:04:15.662Z,82.63
2018-03-08T05:06:41.390Z,78.63
2018-03-08T05:09:07.125Z,76.10
2018-03-08T05:11:32.846Z,76.47
2018-03-08T05:13:58.585Z,73.03
2018-03-08T05:16:24.307Z,76.13
2018-03-08T05:18:50.045Z,84.97
2018-03-08T05:21:15.764Z,88.20
2018-03-08T05:23:41.542Z,76.97
2018-03-08T05:26:07.243Z,87.97
2018-03-08T05:28:32.981Z,89.63
2018-03-08T05:30:58.710Z,92.63
2018-03-08T05:33:24.450Z,85.63
2018-03-08T05:35:50.176Z,94.07
2018-03-08T05:38:15.911Z,89.17
2018-03-08T05:40:41.637Z,96.47
2018-03-08T05:43:07.369Z,85.60
2018-03-08T05:45:33.089Z,86.03
2018-03-08T05:47:58.815Z,87.77
2018-03-08T05:50:24.547Z,79.07
2018-03-08T05:52:50.280Z,86.87
2018-03-08T05:55:16.001Z,89.57
2018-03-08T05:57:41.723Z,87.67
2018-03-08T06:00:07.450Z,90.30
2018-03-08T06:02:33.174Z,93.53
2018-03-08T06:04:58.906Z,87.53
2018-03-08T06:07:24.634Z,86.30
2018-03-08T06:09:50.375Z,85.83
2018-03-08T06:12:16.093Z,88.67
2018-03-08T06:14:41.834Z,82.80
2018-03-08T06:17:07.549Z,84.37
2018-03-08T06:19:33.278Z,86.23
2018-03-08T06:21:59.000Z,91.00
2018-03-08T06:24:24.726Z,92.83
2018-03-08T06:26:50.447Z,88.93
2018-03-08T06:29:16.178Z,92.13
2018-03-08T06:31:41.904Z,95.23
2018-03-08T06:34:07.641Z,86.40
2018-03-08T06:36:33.362Z,86.00
2018-03-08T06:38:59.113Z,87.33
2018-03-08T06:41:24.810Z,80.00
2018-03-08T06:43:50.538Z,87.17
2018-03-08T06:46:16.266Z,84.33
2018-03-08T06:48:41.994Z,92.10
2018-03-08T06:51:07.732Z,94.13
2018-03-08T06:53:33.449Z,96.73
2018-03-08T06:55:59.182Z,105.97
2018-03-08T06:58:24.890Z,95.07
2018-03-08T07:00:50.605Z,107.00
2018-03-08T07:03:16.340Z,104.53
2018-03-08T07:05:42.079Z,99.90
2018-03-08T07:08:07.802Z,114.03
2018-03-08T07:10:33.522Z,106.73
2018-03-08T07:12:59.252Z,96.90
2018-03-08T07:15:25.000Z,104.30
2018-03-08T07:17:50.729Z,115.23
2018-03-08T07:20:16.458Z,105.37
2018-03-08T07:22:42.172Z,106.30
2018-03-08T07:25:07.914Z,112.57
2018-03-08T07:27:33.630Z,113.00
2018-03-08T07:29:59.358Z,105.90
2018-03-08T07:32:25.073Z,120.53
2018-03-08T07:34:50.809Z,107.27
2018-03-08T07:37:16.526Z,115.07
2018-03-08T07:39:42.263Z,118.27
2018-03-08T07:42:07.989Z,122.50
2018-03-08T07:44:33.717Z,108.67
2018-03-08T07:46:59.435Z,118.47
2018-03-08T07:49:25.153Z,120.50
2018-03-08T07:51:50.889Z,119.67
2018-03-08T07:54:16.614Z,117.33
2018-03-08T07:56:42.354Z,121.43
2018-03-08T07:59:08.082Z,115.30
2018-03-08T08:01:33.832Z,137.40
2018-03-08T08:03:59.566Z,138.97
2018-03-08T08:06:37.770Z,134.27
2018-03-08T08:09:10.426Z,120.65
2018-03-08T08:11:36.166Z,130.27
2018-03-08T08:14:01.908Z,150.47
2018-03-08T08:16:27.647Z,165.80
2018-03-08T08:18:53.372Z,149.83
2018-03-08T08:21:19.114Z,156.93
2018-03-08T08:23:44.834Z,157.07
2018-03-08T08:26:10.562Z,133.97
2018-03-08T08:28:36.290Z,133.70
2018-03-08T08:31:02.029Z,142.20
2018-03-08T08:33:27.759Z,110.13
2018-03-08T08:35:54.516Z,120.87
2018-03-08T08:38:20.270Z,123.63
2018-03-08T08:40:46.002Z,99.37
2018-03-08T08:43:11.748Z,97.97
2018-03-08T08:45:37.488Z,95.77
2018-03-08T08:48:03.230Z,98.27
2018-03-08T08:50:28.953Z,88.77
2018-03-08T08:52:54.681Z,88.77
2018-03-08T08:55:20.402Z,75.10
2018-03-08T08:57:46.135Z,71.33
2018-03-08T09:00:11.869Z,65.03
2018-03-08T09:02:37.618Z,54.70
2018-03-08T09:05:03.370Z,51.87
2018-03-08T09:07:29.164Z,55.80
2018-03-08T09:09:54.854Z,51.07
2018-03-08T09:12:20.581Z,59.47
2018-03-08T09:14:46.311Z,49.03
2018-03-08T09:17:12.050Z,47.77
2018-03-08T09:19:37.762Z,47.20
2018-03-08T09:22:03.489Z,47.10
2018-03-08T09:24:29.201Z,48.20
2018-03-08T09:26:54.942Z,47.17
2018-03-08T09:29:20.670Z,42.60
2018-03-08T09:31:46.414Z,43.60
2018-03-08T09:34:12.190Z,38.90
2018-03-08T09:36:37.926Z,42.13
2018-03-08T09:39:03.662Z,43.37
2018-03-08T09:41:36.379Z,41.43
2018-03-08T09:44:02.122Z,40.80
2018-03-08T09:46:27.837Z,44.20
2018-03-08T09:48:53.578Z,40.83
2018-03-08T09:51:19.299Z,43.40
2018-03-08T09:53:45.022Z,42.23
2018-03-08T09:56:10.737Z,42.67
2018-03-08T09:58:36.469Z,43.20
2018-03-08T10:01:02.214Z,45.40
2018-03-08T10:03:27.951Z,48.63
2018-03-08T10:05:53.665Z,44.27
2018-03-08T10:08:19.391Z,47.37
2018-03-08T10:10:45.110Z,50.03
2018-03-08T10:13:10.869Z,53.07
2018-03-08T10:15:36.581Z,52.30
2018-03-08T10:18:02.323Z,50.20
2018-03-08T10:20:28.049Z,49.30
2018-03-08T10:22:53.768Z,55.20
2018-03-08T10:25:19.505Z,57.40
2018-03-08T10:27:45.220Z,60.00
2018-03-08T10:30:10.965Z,55.43
2018-03-08T10:32:36.695Z,54.67
2018-03-08T10:35:02.434Z,54.47
2018-03-08T10:37:28.175Z,61.67
2018-03-08T10:39:53.906Z,56.07
2018-03-08T10:42:19.632Z,57.90
2018-03-08T10:44:45.365Z,56.67
2018-03-08T10:47:11.085Z,53.20
2018-03-08T10:49:36.814Z,57.37
2018-03-08T10:52:02.538Z,53.80
2018-03-08T10:54:28.269Z,59.07
2018-03-08T10:56:54.005Z,62.37
2018-03-08T10:59:19.742Z,64.30
2018-03-08T11:01:51.530Z,81.13
2018-03-08T11:04:23.402Z,63.17
2018-03-08T11:06:49.129Z,64.87
2018-03-08T11:09:14.872Z,54.50
2018-03-08T11:11:40.601Z,52.67
2018-03-08T11:14:06.354Z,47.80
2018-03-08T11:16:32.085Z,55.70
2018-03-08T11:18:57.819Z,48.17
2018-03-08T11:21:23.551Z,50.30
2018-03-08T11:23:49.276Z,51.67
2018-03-08T11:26:15.005Z,48.77
2018-03-08T11:28:40.729Z,45.63
2018-03-08T11:31:06.475Z,47.93
2018-03-08T11:33:32.204Z,50.50
2018-03-08T11:38:29.530Z,48.33
2018-03-08T11:40:55.254Z,48.70
2018-03-08T11:43:20.991Z,48.50
2018-03-08T11:45:46.732Z,44.87
2018-03-08T11:48:12.467Z,44.87
2018-03-08T11:50:38.184Z,48.77
2018-03-08T11:53:03.899Z,46.10
2018-03-08T11:55:36.782Z,45.43
2018-03-08T11:58:02.510Z,44.88
2018-03-08T12:00:28.233Z,41.10
2018-03-08T12:02:53.945Z,38.97
2018-03-08T12:05:19.682Z,36.90
2018-03-08T12:07:45.461Z,34.93
2018-03-08T12:10:11.210Z,31.77
2018-03-08T12:12:36.949Z,31.37
2018-03-08T12:15:02.687Z,34.20
2018-03-08T12:17:28.422Z,32.10
2018-03-08T12:19:54.142Z,31.50
2018-03-08T12:22:19.883Z,31.30
2018-03-08T12:24:45.614Z,30.37
2018-03-08T12:27:11.351Z,30.93
2018-03-08T12:29:37.070Z,29.73
2018-03-08T12:32:02.814Z,30.33
2018-03-08T12:34:28.554Z,29.20
2018-03-08T12:36:54.273Z,27.83
2018-03-08T12:39:19.990Z,30.33
2018-03-08T12:41:45.734Z,26.43
2018-03-08T12:44:11.446Z,26.73
2018-03-08T12:46:37.158Z,28.47
2018-03-08T12:49:02.889Z,28.40
2018-03-08T12:51:28.613Z,28.00
2018-03-08T12:53:54.332Z,28.23
2018-03-08T12:56:20.055Z,25.13
2018-03-08T12:58:45.790Z,29.10
2018-03-08T13:01:11.519Z,24.03
2018-03-08T13:03:37.251Z,25.33
2018-03-08T13:06:02.982Z,25.67
2018-03-08T13:08:28.713Z,25.60
2018-03-08T13:10:54.416Z,26.40
2018-03-08T13:13:20.187Z,26.20
2018-03-08T13:15:45.944Z,25.80
2018-03-08T13:18:11.661Z,27.47
2018-03-08T13:20:37.368Z,27.00
2018-03-08T13:23:03.098Z,29.00
2018-03-08T13:25:28.830Z,28.60
2018-03-08T13:27:54.555Z,27.03
2018-03-08T13:30:20.273Z,27.57
2018-03-08T13:32:45.997Z,31.70
2018-03-08T13:35:11.850Z,30.47
2018-03-08T13:37:37.626Z,32.23
2018-03-08T13:40:03.395Z,30.13
2018-03-08T13:42:29.109Z,33.77
2018-03-08T13:44:54.834Z,33.60
2018-03-08T13:47:20.552Z,34.00
2018-03-08T13:49:46.274Z,33.77
2018-03-08T13:52:11.987Z,31.50
2018-03-08T13:54:37.782Z,32.53
2018-03-08T13:57:03.521Z,35.07
2018-03-08T13:59:29.260Z,31.47
2018-03-08T14:01:54.979Z,30.87
2018-03-08T14:04:20.705Z,30.57
2018-03-08T14:06:46.442Z,27.57
2018-03-08T14:09:12.162Z,23.83
2018-03-08T14:11:37.890Z,23.20
2018-03-08T14:14:03.634Z,21.03
2018-03-08T14:16:29.357Z,20.80
2018-03-08T14:18:55.094Z,21.17
2018-03-08T14:21:20.810Z,19.50
2018-03-08T14:23:46.533Z,18.73
2018-03-08T14:26:12.250Z,17.80
2018-03-08T14:28:37.969Z,18.10
2018-03-08T14:31:03.691Z,18.57
2018-03-08T14:33:29.422Z,18.97
2018-03-08T14:35:55.325Z,18.00
2018-03-08T14:38:21.046Z,19.10
2018-03-08T14:40:46.779Z,17.50
2018-03-08T14:43:12.658Z,17.83
2018-03-08T14:45:38.515Z,17.67
2018-03-08T14:48:04.250Z,16.83
2018-03-08T14:50:29.985Z,16.53
2018-03-08T14:52:55.714Z,17.23
2018-03-08T14:55:21.462Z,17.33
2018-03-08T14:57:47.186Z,17.37
2018-03-08T15:00:12.923Z,16.40
2018-03-08T15:02:38.648Z,18.13
2018-03-08T15:05:04.387Z,17.23
2018-03-08T15:07:30.111Z,17.30
2018-03-08T15:09:55.829Z,17.67
2018-03-08T15:12:21.544Z,17.73
2018-03-08T15:14:47.282Z,17.67
2018-03-08T15:17:13.014Z,18.30
2018-03-08T15:19:38.753Z,17.73
2018-03-08T15:22:04.482Z,15.43
2018-03-08T15:24:30.247Z,15.87
2018-03-08T15:26:55.998Z,16.90
2018-03-08T15:29:21.733Z,15.03
2018-03-08T15:31:47.467Z,15.33
2018-03-08T15:34:13.210Z,16.37
2018-03-08T15:36:38.961Z,16.10
2018-03-08T15:39:04.702Z,15.57
2018-03-08T15:41:30.449Z,17.30
2018-03-08T15:43:56.207Z,18.07
2018-03-08T15:46:21.958Z,17.70
2018-03-08T15:48:47.694Z,18.63
2018-03-08T15:51:13.535Z,19.20
2018-03-08T15:53:39.342Z,17.40
2018-03-08T15:56:05.083Z,18.87
2018-03-08T15:58:30.807Z,17.63
2018-03-08T16:00:56.543Z,17.83
2018-03-08T16:03:22.270Z,19.10
2018-03-08T16:05:47.998Z,19.73
2018-03-08T16:11:25.338Z,18.15
2018-03-08T16:13:51.057Z,21.43
2018-03-08T16:16:16.808Z,20.47
2018-03-08T16:18:42.514Z,20.80
2018-03-08T16:21:08.262Z,21.73
2018-03-08T16:23:33.985Z,19.77
2018-03-08T16:25:59.739Z,20.87
2018-03-08T16:28:25.469Z,20.20
2018-03-08T16:30:51.185Z,21.10
2018-03-08T16:33:16.922Z,22.33
2018-03-08T16:35:42.713Z,20.93
2018-03-08T16:38:08.470Z,22.13
2018-03-08T16:40:34.198Z,20.37
2018-03-08T16:42:59.926Z,21.20
2018-03-08T16:45:25.655Z,20.17
2018-03-08T16:47:51.459Z,21.30
2018-03-08T16:50:17.185Z,21.07
2018-03-08T16:52:42.900Z,21.33
2018-03-08T16:55:08.623Z,21.03
2018-03-08T16:57:34.354Z,21.30
2018-03-08T17:00:00.086Z,22.33
2018-03-08T17:02:25.835Z,21.40
2018-03-08T17:04:51.560Z,21.63
2018-03-08T17:07:17.300Z,21.03
2018-03-08T17:09:43.043Z,23.17
2018-03-08T17:12:08.775Z,22.37
2018-03-08T17:14:34.526Z,21.50
2018-03-08T17:17:00.246Z,23.03
2018-03-08T17:19:26.081Z,23.47
2018-03-08T17:21:52.090Z,24.10
2018-03-08T17:24:17.891Z,24.98
2018-03-08T17:26:43.627Z,21.43
2018-03-08T17:29:09.370Z,17.70
2018-03-08T17:31:35.095Z,15.47
2018-03-08T17:34:00.869Z,12.73
2018-03-08T17:36:26.601Z,12.73
2018-03-08T17:38:52.376Z,10.43
2018-03-08T17:41:18.110Z,11.13
2018-03-08T17:43:43.886Z,11.43
2018-03-08T17:46:09.626Z,10.33
2018-03-08T17:48:35.361Z,9.60
2018-03-08T17:51:01.077Z,7.60
2018-03-08T17:53:26.955Z,8.90
2018-03-08T17:55:52.681Z,9.13
2018-03-08T17:58:18.421Z,8.83
2018-03-08T18:00:44.230Z,9.17
2018-03-08T18:03:09.953Z,8.87
2018-03-08T18:05:35.689Z,9.17
2018-03-08T18:08:01.425Z,11.07
2018-03-08T18:10:27.160Z,10.00
2018-03-08T18:12:52.889Z,10.90
2018-03-08T18:15:18.633Z,12.20
2018-03-08T18:17:44.355Z,11.60
2018-03-08T18:20:10.192Z,12.83
2018-03-08T18:22:35.927Z,13.33
2018-03-08T18:25:01.747Z,13.50
2018-03-08T18:27:27.486Z,13.53
2018-03-08T18:29:53.221Z,13.80
2018-03-08T18:32:18.946Z,14.80
2018-03-08T18:34:44.679Z,16.87
2018-03-08T18:37:10.402Z,17.30
2018-03-08T18:39:36.475Z,16.40
2018-03-08T18:42:02.202Z,14.82
2018-03-08T18:44:27.925Z,21.33
2018-03-08T18:46:53.684Z,13.07
2018-03-08T18:49:19.435Z,10.60
2018-03-08T18:51:45.178Z,11.90
2018-03-08T18:54:10.902Z,11.00
2018-03-08T18:56:36.656Z,9.63
2018-03-08T18:59:02.820Z,11.03
2018-03-08T19:01:28.537Z,11.73
2018-03-08T19:03:54.249Z,13.70
2018-03-08T19:06:19.998Z,13.00
2018-03-08T19:08:45.727Z,14.67
2018-03-08T19:11:11.457Z,14.03
2018-03-08T19:13:37.186Z,14.03
2018-03-08T19:16:02.913Z,13.30
2018-03-08T19:18:28.638Z,15.43
2018-03-08T19:20:54.377Z,15.00
2018-03-08T19:23:20.094Z,15.50
2018-03-08T19:25:45.927Z,15.27
2018-03-08T19:28:11.669Z,16.60
2018-03-08T19:30:37.383Z,14.57
2018-03-08T19:33:03.105Z,13.60
2018-03-08T19:35:28.831Z,15.83
2018-03-08T19:37:54.646Z,14.53
2018-03-08T19:40:20.386Z,14.87
2018-03-08T19:42:46.128Z,15.47
2018-03-08T19:45:11.850Z,15.63
2018-03-08T19:47:37.619Z,15.10
2018-03-08T19:50:03.524Z,15.00
2018-03-08T19:52:29.320Z,15.83
2018-03-08T19:54:55.127Z,15.00
2018-03-08T19:57:20.927Z,14.47
2018-03-08T19:59:46.694Z,13.97
2018-03-08T20:02:12.508Z,14.20
2018-03-08T20:04:38.441Z,15.30
2018-03-08T20:07:04.265Z,13.60
2018-03-08T20:09:30.145Z,14.47
2018-03-08T20:11:55.909Z,15.00
2018-03-08T20:14:21.870Z,15.30
2018-03-08T20:16:47.655Z,14.55
2018-03-08T20:19:13.394Z,15.63
2018-03-08T20:21:39.146Z,16.70
2018-03-08T20:24:04.898Z,16.63
2018-03-08T20:26:30.642Z,17.37
2018-03-08T20:28:56.376Z,18.77
2018-03-08T20:31:22.154Z,17.73
2018-03-08T20:33:47.906Z,18.43
2018-03-08T20:36:13.647Z,18.83
2018-03-08T20:38:39.390Z,19.53
2018-03-08T20:41:05.122Z,18.87
2018-03-08T20:43:30.852Z,19.97
2018-03-08T20:45:56.634Z,19.07
2018-03-08T20:48:22.354Z,19.70
2018-03-08T20:50:48.085Z,21.00
2018-03-08T20:53:13.816Z,22.27
2018-03-08T20:55:39.550Z,24.97
2018-03-08T20:58:05.292Z,22.17
2018-03-08T21:00:31.030Z,21.40
2018-03-08T21:02:56.766Z,22.07
2018-03-08T21:05:22.519Z,21.80
2018-03-08T21:07:48.259Z,21.57
2018-03-08T21:10:14.008Z,21.57
2018-03-08T21:12:39.734Z,24.07
2018-03-08T21:15:05.496Z,23.37
2018-03-08T21:17:31.267Z,27.83
2018-03-08T21:19:57.022Z,25.17
2018-03-08T21:22:22.762Z,24.40
2018-03-08T21:24:48.510Z,25.80
2018-03-08T21:27:14.270Z,25.37
2018-03-08T21:29:40.425Z,26.93
2018-03-08T21:32:06.194Z,27.45
2018-03-08T21:34:31.995Z,27.80
2018-03-08T21:36:57.746Z,27.27
2018-03-08T21:39:23.507Z,26.97
2018-03-08T21:41:49.266Z,25.60
2018-03-08T21:44:15.024Z,27.40
2018-03-08T21:46:40.786Z,26.13
2018-03-08T21:49:06.542Z,26.37
2018-03-08T21:51:32.316Z,19.47
2018-03-08T21:53:58.063Z,19.97
2018-03-08T21:56:23.805Z,16.17
2018-03-08T21:58:49.552Z,15.90
2018-03-08T22:01:15.355Z,16.27
2018-03-08T22:03:41.102Z,16.50
2018-03-08T22:06:06.863Z,14.87
2018-03-08T22:08:32.623Z,13.77
2018-03-08T22:10:58.379Z,13.60
2018-03-08T22:13:24.191Z,12.73
2018-03-08T22:15:49.974Z,12.67
2018-03-08T22:18:15.722Z,13.60
2018-03-08T22:20:41.543Z,13.50
2018-03-08T22:23:07.480Z,12.20
2018-03-08T22:25:33.264Z,13.50
2018-03-08T22:27:59.029Z,13.67
2018-03-08T22:30:24.810Z,13.07
2018-03-08T22:32:50.561Z,13.97
2018-03-08T22:35:16.350Z,13.97
2018-03-08T22:37:42.106Z,11.83
2018-03-08T22:42:39.350Z,13.82
2018-03-08T22:45:05.131Z,14.10
2018-03-08T22:47:30.914Z,14.63
2018-03-08T22:49:56.687Z,13.87
2018-03-08T22:52:22.463Z,14.17
2018-03-08T22:54:48.235Z,14.83
2018-03-08T22:57:14.002Z,15.80
2018-03-08T22:59:39.811Z,15.53
2018-03-08T23:02:06.545Z,16.77
2018-03-08T23:04:32.378Z,17.37
2018-03-08T23:06:58.150Z,18.27
2018-03-08T23:09:23.926Z,17.83
2018-03-08T23:11:49.710Z,19.87
2018-03-08T23:14:15.500Z,17.93
2018-03-08T23:16:41.274Z,19.57
2018-03-08T23:19:07.070Z,19.93
2018-03-08T23:21:32.863Z,21.77
2018-03-08T23:23:58.627Z,20.03
2018-03-08T23:26:24.423Z,19.93
2018-03-08T23:28:50.182Z,21.00
2018-03-08T23:31:15.946Z,18.53
2018-03-08T23:33:41.731Z,18.40
2018-03-08T23:36:07.497Z,18.50
2018-03-08T23:38:33.302Z,18.53
2018-03-08T23:43:30.445Z,18.27
2018-03-08T23:45:56.207Z,18.53
2018-03-08T23:48:22.001Z,19.40
2018-03-08T23:50:47.781Z,17.70
2018-03-08T23:53:13.535Z,17.70
2018-03-08T23:55:39.287Z,18.87
2018-03-08T23:58:05.092Z,17.77
